sensor_id;sensor_type;location;lat;lon;timestamp;pressure;altitude;pressure_sealevel;temperature;humidity
3122;BME280;1571;52.524;14.104;2024-03-22T00:01:55;101530.41;;;7.53;100.00
3122;BME280;1571;52.524;14.104;2024-03-22T00:04:22;101531.91;;;7.60;100.00
3122;BME280;1571;52.524;14.104;2024-03-22T00:06:50;101534.72;;;7.55;100.00
3122;BME280;1571;52.524;14.104;2024-03-22T00:09:16;101523.91;;;7.38;100.00
3122;BME280;1571;52.524;14.104;2024-03-22T00:11:44;101537.25;;;7.35;100.00
3122;BME280;1571;52.524;14.104;2024-03-22T00:14:11;101522.66;;;7.48;100.00
3122;BME280;1571;52.524;14.104;2024-03-22T00:16:38;101526.94;;;7.52;100.00
3122;BME280;1571;52.524;14.104;2024-03-22T00:19:06;101526.66;;;7.58;100.00
3122;BME280;1571;52.524;14.104;2024-03-22T00:21:33;101522.78;;;7.68;100.00
3122;BME280;1571;52.524;14.104;2024-03-22T00:23:59;101521.84;;;7.69;100.00
3122;BME280;1571;52.524;14.104;2024-03-22T00:26:27;101515.34;;;7.78;100.00
3122;BME280;1571;52.524;14.104;2024-03-22T00:28:54;101516.50;;;7.71;100.00
3122;BME280;1571;52.524;14.104;2024-03-22T00:31:23;101505.63;;;7.79;99.97
3122;BME280;1571;52.524;14.104;2024-03-22T00:33:50;101501.19;;;7.57;99.78
3122;BME280;1571;52.524;14.104;2024-03-22T00:36:18;101502.97;;;7.79;99.50
3122;BME280;1571;52.524;14.104;2024-03-22T00:38:46;101497.06;;;7.72;99.32
3122;BME280;1571;52.524;14.104;2024-03-22T00:41:13;101503.34;;;7.69;99.14
3122;BME280;1571;52.524;14.104;2024-03-22T00:43:40;101501.50;;;7.71;98.69
3122;BME280;1571;52.524;14.104;2024-03-22T00:46:07;101502.78;;;7.61;98.65
3122;BME280;1571;52.524;14.104;2024-03-22T00:48:33;101498.31;;;7.63;98.80
3122;BME280;1571;52.524;14.104;2024-03-22T00:51:02;101481.97;;;7.76;98.68
3122;BME280;1571;52.524;14.104;2024-03-22T00:53:30;101488.06;;;7.54;98.52
3122;BME280;1571;52.524;14.104;2024-03-22T00:55:57;101479.69;;;7.43;99.17
3122;BME280;1571;52.524;14.104;2024-03-22T00:58:26;101478.19;;;7.36;99.62
3122;BME280;1571;52.524;14.104;2024-03-22T01:00:54;101483.59;;;7.56;99.86
3122;BME280;1571;52.524;14.104;2024-03-22T01:03:20;101474.69;;;7.35;99.37
3122;BME280;1571;52.524;14.104;2024-03-22T01:05:47;101486.06;;;7.37;99.98
3122;BME280;1571;52.524;14.104;2024-03-22T01:08:14;101487.22;;;7.54;99.91
3122;BME280;1571;52.524;14.104;2024-03-22T01:10:42;101479.00;;;7.61;99.39
3122;BME280;1571;52.524;14.104;2024-03-22T01:13:09;101478.31;;;7.56;99.15
3122;BME280;1571;52.524;14.104;2024-03-22T01:15:36;101482.50;;;7.62;99.07
3122;BME280;1571;52.524;14.104;2024-03-22T01:18:03;101468.88;;;7.49;98.72
3122;BME280;1571;52.524;14.104;2024-03-22T01:20:30;101452.44;;;7.64;98.89
3122;BME280;1571;52.524;14.104;2024-03-22T01:22:59;101451.19;;;7.75;98.79
3122;BME280;1571;52.524;14.104;2024-03-22T01:25:27;101454.28;;;7.86;98.04
3122;BME280;1571;52.524;14.104;2024-03-22T01:27:55;101449.13;;;7.81;98.06
3122;BME280;1571;52.524;14.104;2024-03-22T01:30:22;101460.31;;;7.88;97.71
3122;BME280;1571;52.524;14.104;2024-03-22T01:32:48;101454.31;;;7.84;97.60
3122;BME280;1571;52.524;14.104;2024-03-22T01:35:16;101462.91;;;7.67;97.21
3122;BME280;1571;52.524;14.104;2024-03-22T01:37:42;101455.28;;;7.60;98.06
3122;BME280;1571;52.524;14.104;2024-03-22T01:40:10;101452.53;;;7.85;98.40
3122;BME280;1571;52.524;14.104;2024-03-22T01:42:37;101448.03;;;7.65;98.45
3122;BME280;1571;52.524;14.104;2024-03-22T01:45:06;101453.09;;;7.93;98.61
3122;BME280;1571;52.524;14.104;2024-03-22T01:47:33;101444.31;;;7.92;98.44
3122;BME280;1571;52.524;14.104;2024-03-22T01:50:00;101448.66;;;7.71;98.44
3122;BME280;1571;52.524;14.104;2024-03-22T01:52:27;101439.69;;;7.76;98.61
3122;BME280;1571;52.524;14.104;2024-03-22T01:54:55;101443.78;;;7.61;98.83
3122;BME280;1571;52.524;14.104;2024-03-22T01:57:21;101441.88;;;7.64;98.92
3122;BME280;1571;52.524;14.104;2024-03-22T01:59:51;101440.41;;;7.57;99.69
3122;BME280;1571;52.524;14.104;2024-03-22T02:02:21;101434.53;;;7.49;99.81
3122;BME280;1571;52.524;14.104;2024-03-22T02:04:50;101431.72;;;7.54;100.00
3122;BME280;1571;52.524;14.104;2024-03-22T02:07:16;101421.78;;;7.60;99.93
3122;BME280;1571;52.524;14.104;2024-03-22T02:09:44;101422.28;;;7.48;100.00
3122;BME280;1571;52.524;14.104;2024-03-22T02:12:10;101421.16;;;7.54;100.00
3122;BME280;1571;52.524;14.104;2024-03-22T02:14:38;101422.44;;;7.65;100.00
3122;BME280;1571;52.524;14.104;2024-03-22T02:17:05;101412.81;;;7.64;100.00
3122;BME280;1571;52.524;14.104;2024-03-22T02:19:33;101412.16;;;7.59;100.00
3122;BME280;1571;52.524;14.104;2024-03-22T02:22:00;101408.56;;;7.60;100.00
3122;BME280;1571;52.524;14.104;2024-03-22T02:24:28;101398.44;;;7.71;100.00
3122;BME280;1571;52.524;14.104;2024-03-22T02:26:54;101388.88;;;7.23;100.00
3122;BME280;1571;52.524;14.104;2024-03-22T02:29:22;101394.16;;;7.23;100.00
3122;BME280;1571;52.524;14.104;2024-03-22T02:31:48;101395.75;;;7.04;100.00
3122;BME280;1571;52.524;14.104;2024-03-22T02:34:15;101392.19;;;7.28;100.00
3122;BME280;1571;52.524;14.104;2024-03-22T02:36:41;101379.66;;;7.34;100.00
3122;BME280;1571;52.524;14.104;2024-03-22T02:39:08;101386.91;;;7.28;100.00
3122;BME280;1571;52.524;14.104;2024-03-22T02:41:36;101386.13;;;7.03;100.00
3122;BME280;1571;52.524;14.104;2024-03-22T02:44:04;101379.56;;;6.90;100.00
3122;BME280;1571;52.524;14.104;2024-03-22T02:46:30;101376.69;;;7.19;100.00
3122;BME280;1571;52.524;14.104;2024-03-22T02:48:57;101378.44;;;6.97;100.00
3122;BME280;1571;52.524;14.104;2024-03-22T02:51:23;101377.28;;;7.04;100.00
3122;BME280;1571;52.524;14.104;2024-03-22T02:53:51;101370.63;;;6.94;100.00
3122;BME280;1571;52.524;14.104;2024-03-22T02:56:17;101370.97;;;7.08;100.00
3122;BME280;1571;52.524;14.104;2024-03-22T02:58:45;101372.22;;;6.98;100.00
3122;BME280;1571;52.524;14.104;2024-03-22T03:01:12;101380.03;;;7.01;100.00
3122;BME280;1571;52.524;14.104;2024-03-22T03:03:39;101368.31;;;7.08;100.00
3122;BME280;1571;52.524;14.104;2024-03-22T03:06:05;101368.66;;;6.99;100.00
3122;BME280;1571;52.524;14.104;2024-03-22T03:08:32;101359.38;;;7.12;100.00
3122;BME280;1571;52.524;14.104;2024-03-22T03:10:59;101367.47;;;7.07;100.00
3122;BME280;1571;52.524;14.104;2024-03-22T03:13:26;101356.06;;;7.07;100.00
3122;BME280;1571;52.524;14.104;2024-03-22T03:15:53;101354.00;;;7.14;100.00
3122;BME280;1571;52.524;14.104;2024-03-22T03:18:21;101353.06;;;7.16;100.00
3122;BME280;1571;52.524;14.104;2024-03-22T03:20:47;101353.72;;;6.98;100.00
3122;BME280;1571;52.524;14.104;2024-03-22T03:23:15;101343.69;;;7.07;100.00
3122;BME280;1571;52.524;14.104;2024-03-22T03:25:41;101340.13;;;7.08;100.00
3122;BME280;1571;52.524;14.104;2024-03-22T03:28:09;101349.16;;;7.03;100.00
3122;BME280;1571;52.524;14.104;2024-03-22T03:30:35;101340.09;;;7.10;100.00
3122;BME280;1571;52.524;14.104;2024-03-22T03:33:04;101337.31;;;7.13;100.00
3122;BME280;1571;52.524;14.104;2024-03-22T03:35:30;101324.25;;;7.10;100.00
3122;BME280;1571;52.524;14.104;2024-03-22T03:37:57;101324.59;;;7.01;100.00
3122;BME280;1571;52.524;14.104;2024-03-22T03:40:24;101330.09;;;6.95;100.00
3122;BME280;1571;52.524;14.104;2024-03-22T03:42:52;101329.97;;;6.98;100.00
3122;BME280;1571;52.524;14.104;2024-03-22T03:45:19;101312.78;;;6.87;100.00
3122;BME280;1571;52.524;14.104;2024-03-22T03:47:46;101306.47;;;6.92;100.00
3122;BME280;1571;52.524;14.104;2024-03-22T03:50:14;101298.78;;;6.85;100.00
3122;BME280;1571;52.524;14.104;2024-03-22T03:52:41;101295.56;;;7.01;100.00
3122;BME280;1571;52.524;14.104;2024-03-22T03:55:08;101299.28;;;6.95;100.00
3122;BME280;1571;52.524;14.104;2024-03-22T03:57:35;101293.38;;;6.88;100.00
3122;BME280;1571;52.524;14.104;2024-03-22T04:00:01;101296.00;;;6.88;100.00
3122;BME280;1571;52.524;14.104;2024-03-22T04:02:31;101291.09;;;7.03;100.00
3122;BME280;1571;52.524;14.104;2024-03-22T04:04:58;101288.81;;;6.94;100.00
3122;BME280;1571;52.524;14.104;2024-03-22T04:07:26;101286.84;;;6.99;100.00
3122;BME280;1571;52.524;14.104;2024-03-22T04:09:53;101280.75;;;6.97;100.00
3122;BME280;1571;52.524;14.104;2024-03-22T04:12:20;101272.47;;;7.06;100.00
3122;BME280;1571;52.524;14.104;2024-03-22T04:14:46;101271.28;;;6.91;100.00
3122;BME280;1571;52.524;14.104;2024-03-22T04:17:13;101272.66;;;7.01;100.00
3122;BME280;1571;52.524;14.104;2024-03-22T04:19:39;101278.66;;;6.83;100.00
3122;BME280;1571;52.524;14.104;2024-03-22T04:22:07;101273.72;;;6.96;100.00
3122;BME280;1571;52.524;14.104;2024-03-22T04:24:34;101267.56;;;6.97;100.00
3122;BME280;1571;52.524;14.104;2024-03-22T04:27:02;101267.13;;;7.07;100.00
3122;BME280;1571;52.524;14.104;2024-03-22T04:29:28;101257.78;;;6.99;100.00
3122;BME280;1571;52.524;14.104;2024-03-22T04:31:55;101248.44;;;6.90;100.00
3122;BME280;1571;52.524;14.104;2024-03-22T04:34:21;101237.34;;;7.04;100.00
3122;BME280;1571;52.524;14.104;2024-03-22T04:36:50;101236.69;;;6.99;100.00
3122;BME280;1571;52.524;14.104;2024-03-22T04:39:19;101228.34;;;7.09;100.00
3122;BME280;1571;52.524;14.104;2024-03-22T04:41:47;101222.72;;;6.95;100.00
3122;BME280;1571;52.524;14.104;2024-03-22T04:44:15;101221.97;;;7.14;100.00
3122;BME280;1571;52.524;14.104;2024-03-22T04:46:42;101219.09;;;7.20;100.00
3122;BME280;1571;52.524;14.104;2024-03-22T04:49:08;101212.97;;;7.19;100.00
3122;BME280;1571;52.524;14.104;2024-03-22T04:51:36;101224.16;;;7.04;100.00
3122;BME280;1571;52.524;14.104;2024-03-22T04:54:02;101213.81;;;6.98;100.00
3122;BME280;1571;52.524;14.104;2024-03-22T04:56:29;101221.50;;;7.04;100.00
3122;BME280;1571;52.524;14.104;2024-03-22T04:58:57;101207.81;;;7.16;100.00
3122;BME280;1571;52.524;14.104;2024-03-22T05:01:24;101209.28;;;7.01;100.00
3122;BME280;1571;52.524;14.104;2024-03-22T05:03:51;101204.16;;;6.98;100.00
3122;BME280;1571;52.524;14.104;2024-03-22T05:06:18;101213.59;;;7.04;100.00
3122;BME280;1571;52.524;14.104;2024-03-22T05:08:44;101198.97;;;7.17;100.00
3122;BME280;1571;52.524;14.104;2024-03-22T05:11:12;101202.81;;;7.30;100.00
3122;BME280;1571;52.524;14.104;2024-03-22T05:13:38;101208.31;;;7.26;100.00
3122;BME280;1571;52.524;14.104;2024-03-22T05:16:07;101209.81;;;7.32;100.00
3122;BME280;1571;52.524;14.104;2024-03-22T05:18:34;101205.09;;;7.40;100.00
3122;BME280;1571;52.524;14.104;2024-03-22T05:21:01;101197.59;;;7.29;100.00
3122;BME280;1571;52.524;14.104;2024-03-22T05:23:27;101185.75;;;7.39;100.00
3122;BME280;1571;52.524;14.104;2024-03-22T05:25:54;101196.50;;;7.35;100.00
3122;BME280;1571;52.524;14.104;2024-03-22T05:28:21;101185.19;;;7.31;100.00
3122;BME280;1571;52.524;14.104;2024-03-22T05:30:48;101176.88;;;7.40;100.00
3122;BME280;1571;52.524;14.104;2024-03-22T05:33:16;101176.19;;;7.57;100.00
3122;BME280;1571;52.524;14.104;2024-03-22T05:35:43;101160.78;;;7.46;100.00
3122;BME280;1571;52.524;14.104;2024-03-22T05:38:09;101162.44;;;7.49;100.00
3122;BME280;1571;52.524;14.104;2024-03-22T05:40:36;101157.41;;;7.43;100.00
3122;BME280;1571;52.524;14.104;2024-03-22T05:43:04;101149.88;;;7.54;100.00
3122;BME280;1571;52.524;14.104;2024-03-22T05:45:31;101140.28;;;7.51;100.00
3122;BME280;1571;52.524;14.104;2024-03-22T05:47:58;101146.56;;;7.49;100.00
3122;BME280;1571;52.524;14.104;2024-03-22T05:50:27;101142.13;;;7.49;100.00
3122;BME280;1571;52.524;14.104;2024-03-22T05:52:53;101135.94;;;7.71;100.00
3122;BME280;1571;52.524;14.104;2024-03-22T05:55:20;101135.88;;;7.72;100.00
3122;BME280;1571;52.524;14.104;2024-03-22T05:57:46;101150.19;;;7.67;100.00
3122;BME280;1571;52.524;14.104;2024-03-22T06:00:14;101149.50;;;7.63;100.00
3122;BME280;1571;52.524;14.104;2024-03-22T06:02:40;101145.13;;;7.62;100.00
3122;BME280;1571;52.524;14.104;2024-03-22T06:05:08;101152.13;;;7.84;100.00
3122;BME280;1571;52.524;14.104;2024-03-22T06:07:35;101140.06;;;7.77;100.00
3122;BME280;1571;52.524;14.104;2024-03-22T06:10:08;101136.34;;;7.62;100.00
3122;BME280;1571;52.524;14.104;2024-03-22T06:12:35;101136.78;;;7.71;100.00
3122;BME280;1571;52.524;14.104;2024-03-22T06:15:04;101130.97;;;7.84;100.00
3122;BME280;1571;52.524;14.104;2024-03-22T06:17:32;101119.13;;;8.11;100.00
3122;BME280;1571;52.524;14.104;2024-03-22T06:20:00;101116.47;;;8.30;100.00
3122;BME280;1571;52.524;14.104;2024-03-22T06:22:26;101107.41;;;8.36;100.00
3122;BME280;1571;52.524;14.104;2024-03-22T06:24:54;101104.13;;;8.12;100.00
3122;BME280;1571;52.524;14.104;2024-03-22T06:27:21;101104.59;;;8.01;99.85
3122;BME280;1571;52.524;14.104;2024-03-22T06:29:48;101108.03;;;8.03;100.00
3122;BME280;1571;52.524;14.104;2024-03-22T06:32:14;101107.25;;;8.01;100.00
3122;BME280;1571;52.524;14.104;2024-03-22T06:34:42;101103.78;;;8.20;100.00
3122;BME280;1571;52.524;14.104;2024-03-22T06:37:08;101101.13;;;8.20;99.90
3122;BME280;1571;52.524;14.104;2024-03-22T06:39:35;101088.25;;;8.31;99.86
3122;BME280;1571;52.524;14.104;2024-03-22T06:42:03;101090.50;;;8.40;98.67
3122;BME280;1571;52.524;14.104;2024-03-22T06:44:30;101091.06;;;8.64;97.70
3122;BME280;1571;52.524;14.104;2024-03-22T06:46:57;101086.78;;;8.62;97.34
3122;BME280;1571;52.524;14.104;2024-03-22T06:49:24;101090.50;;;8.77;96.84
3122;BME280;1571;52.524;14.104;2024-03-22T06:51:51;101086.66;;;8.82;96.47
3122;BME280;1571;52.524;14.104;2024-03-22T06:54:18;101079.22;;;8.90;95.84
3122;BME280;1571;52.524;14.104;2024-03-22T06:56:44;101076.03;;;9.01;94.87
3122;BME280;1571;52.524;14.104;2024-03-22T06:59:13;101071.91;;;9.13;94.05
3122;BME280;1571;52.524;14.104;2024-03-22T07:01:39;101074.69;;;8.92;93.82
3122;BME280;1571;52.524;14.104;2024-03-22T07:04:07;101071.72;;;8.81;94.13
3122;BME280;1571;52.524;14.104;2024-03-22T07:06:33;101074.09;;;8.87;94.32
3122;BME280;1571;52.524;14.104;2024-03-22T07:09:01;101075.00;;;8.86;94.21
3122;BME280;1571;52.524;14.104;2024-03-22T07:11:27;101064.56;;;8.83;94.19
3122;BME280;1571;52.524;14.104;2024-03-22T07:13:54;101070.88;;;8.81;94.26
3122;BME280;1571;52.524;14.104;2024-03-22T07:16:22;101076.66;;;8.52;95.61
3122;BME280;1571;52.524;14.104;2024-03-22T07:18:49;101077.03;;;8.81;96.14
3122;BME280;1571;52.524;14.104;2024-03-22T07:21:16;101073.59;;;8.79;96.37
3122;BME280;1571;52.524;14.104;2024-03-22T07:23:43;101073.91;;;8.90;96.38
3122;BME280;1571;52.524;14.104;2024-03-22T07:26:09;101070.19;;;8.94;96.10
3122;BME280;1571;52.524;14.104;2024-03-22T07:28:37;101070.41;;;8.90;95.92
3122;BME280;1571;52.524;14.104;2024-03-22T07:31:03;101068.78;;;9.22;95.82
3122;BME280;1571;52.524;14.104;2024-03-22T07:33:33;101056.44;;;9.38;95.46
3122;BME280;1571;52.524;14.104;2024-03-22T07:36:02;101052.31;;;9.50;94.02
3122;BME280;1571;52.524;14.104;2024-03-22T07:38:28;101050.56;;;9.49;93.63
3122;BME280;1571;52.524;14.104;2024-03-22T07:40:55;101046.47;;;9.44;93.57
3122;BME280;1571;52.524;14.104;2024-03-22T07:43:21;101047.53;;;9.57;93.12
3122;BME280;1571;52.524;14.104;2024-03-22T07:45:49;101034.50;;;9.52;92.32
3122;BME280;1571;52.524;14.104;2024-03-22T07:48:15;101039.72;;;9.54;91.92
3122;BME280;1571;52.524;14.104;2024-03-22T07:50:44;101030.50;;;9.61;92.15
3122;BME280;1571;52.524;14.104;2024-03-22T07:53:10;101028.81;;;9.60;91.74
3122;BME280;1571;52.524;14.104;2024-03-22T07:55:39;101033.75;;;9.50;91.38
3122;BME280;1571;52.524;14.104;2024-03-22T07:58:06;101036.56;;;9.30;91.47
3122;BME280;1571;52.524;14.104;2024-03-22T08:00:33;101048.00;;;9.48;91.46
3122;BME280;1571;52.524;14.104;2024-03-22T08:02:59;101051.56;;;9.31;91.52
3122;BME280;1571;52.524;14.104;2024-03-22T08:05:26;101049.75;;;9.31;91.58
3122;BME280;1571;52.524;14.104;2024-03-22T08:07:54;101037.53;;;9.11;92.05
3122;BME280;1571;52.524;14.104;2024-03-22T08:10:21;101046.81;;;9.20;91.45
3122;BME280;1571;52.524;14.104;2024-03-22T08:12:47;101037.94;;;9.54;91.53
3122;BME280;1571;52.524;14.104;2024-03-22T08:15:14;101044.91;;;9.40;91.45
3122;BME280;1571;52.524;14.104;2024-03-22T08:17:41;101047.31;;;9.44;91.78
3122;BME280;1571;52.524;14.104;2024-03-22T08:20:08;101048.06;;;9.30;92.30
3122;BME280;1571;52.524;14.104;2024-03-22T08:22:35;101044.09;;;9.22;93.55
3122;BME280;1571;52.524;14.104;2024-03-22T08:25:04;101049.16;;;9.09;93.64
3122;BME280;1571;52.524;14.104;2024-03-22T08:27:30;101046.19;;;9.32;94.34
3122;BME280;1571;52.524;14.104;2024-03-22T08:29:57;101039.72;;;9.54;94.10
3122;BME280;1571;52.524;14.104;2024-03-22T08:32:24;101032.59;;;9.38;95.18
3122;BME280;1571;52.524;14.104;2024-03-22T08:34:51;101023.53;;;9.92;95.39
3122;BME280;1571;52.524;14.104;2024-03-22T08:37:17;101019.84;;;9.78;95.05
3122;BME280;1571;52.524;14.104;2024-03-22T08:39:44;101006.09;;;9.88;94.99
3122;BME280;1571;52.524;14.104;2024-03-22T08:42:12;101011.97;;;9.93;94.91
3122;BME280;1571;52.524;14.104;2024-03-22T08:44:39;100998.72;;;10.25;93.79
3122;BME280;1571;52.524;14.104;2024-03-22T08:47:06;100990.09;;;10.05;94.16
3122;BME280;1571;52.524;14.104;2024-03-22T08:49:34;100994.44;;;9.74;94.41
3122;BME280;1571;52.524;14.104;2024-03-22T08:52:02;100985.00;;;10.48;94.32
3122;BME280;1571;52.524;14.104;2024-03-22T08:54:29;100984.47;;;10.57;93.08
3122;BME280;1571;52.524;14.104;2024-03-22T08:56:56;100992.56;;;10.40;92.17
3122;BME280;1571;52.524;14.104;2024-03-22T08:59:24;100975.88;;;11.13;91.11
3122;BME280;1571;52.524;14.104;2024-03-22T09:01:51;100978.06;;;11.20;89.47
3122;BME280;1571;52.524;14.104;2024-03-22T09:04:18;100970.84;;;10.63;90.67
3122;BME280;1571;52.524;14.104;2024-03-22T09:06:45;100959.94;;;10.54;91.12
3122;BME280;1571;52.524;14.104;2024-03-22T09:09:12;100962.59;;;10.38;90.73
3122;BME280;1571;52.524;14.104;2024-03-22T09:11:39;100959.00;;;10.39;91.25
3122;BME280;1571;52.524;14.104;2024-03-22T09:14:06;100936.97;;;10.97;89.53
3122;BME280;1571;52.524;14.104;2024-03-22T09:16:33;100933.94;;;10.59;89.88
3122;BME280;1571;52.524;14.104;2024-03-22T09:19:01;100935.00;;;10.56;89.17
3122;BME280;1571;52.524;14.104;2024-03-22T09:21:27;100925.22;;;10.57;88.71
3122;BME280;1571;52.524;14.104;2024-03-22T09:23:54;100932.84;;;10.92;87.91
3122;BME280;1571;52.524;14.104;2024-03-22T09:26:21;100929.06;;;10.81;87.34
3122;BME280;1571;52.524;14.104;2024-03-22T09:28:48;100927.47;;;10.93;86.86
3122;BME280;1571;52.524;14.104;2024-03-22T09:31:14;100934.09;;;11.00;86.84
3122;BME280;1571;52.524;14.104;2024-03-22T09:33:43;100926.53;;;11.37;86.69
3122;BME280;1571;52.524;14.104;2024-03-22T09:36:09;100929.78;;;10.69;86.00
3122;BME280;1571;52.524;14.104;2024-03-22T09:38:36;100927.56;;;11.06;86.09
3122;BME280;1571;52.524;14.104;2024-03-22T09:41:03;100922.16;;;11.08;86.08
3122;BME280;1571;52.524;14.104;2024-03-22T09:43:31;100903.75;;;11.04;85.98
3122;BME280;1571;52.524;14.104;2024-03-22T09:45:58;100888.06;;;11.43;85.36
3122;BME280;1571;52.524;14.104;2024-03-22T09:48:26;100895.44;;;11.52;85.09
3122;BME280;1571;52.524;14.104;2024-03-22T09:50:54;100894.09;;;11.86;84.07
3122;BME280;1571;52.524;14.104;2024-03-22T09:53:22;100877.13;;;12.16;82.79
3122;BME280;1571;52.524;14.104;2024-03-22T09:55:49;100876.38;;;11.87;82.04
3122;BME280;1571;52.524;14.104;2024-03-22T09:58:18;100875.00;;;11.67;82.48
3122;BME280;1571;52.524;14.104;2024-03-22T10:00:44;100886.44;;;12.09;81.01
3122;BME280;1571;52.524;14.104;2024-03-22T10:03:11;100884.63;;;12.62;80.19
3122;BME280;1571;52.524;14.104;2024-03-22T10:05:37;100876.91;;;13.47;78.15
3122;BME280;1571;52.524;14.104;2024-03-22T10:08:07;100868.31;;;13.31;77.30
3122;BME280;1571;52.524;14.104;2024-03-22T10:10:33;100862.88;;;13.07;77.11
3122;BME280;1571;52.524;14.104;2024-03-22T10:13:01;100868.63;;;13.13;76.93
3122;BME280;1571;52.524;14.104;2024-03-22T10:15:27;100857.75;;;13.17;77.47
3122;BME280;1571;52.524;14.104;2024-03-22T10:17:56;100869.06;;;13.07;77.53
3122;BME280;1571;52.524;14.104;2024-03-22T10:20:23;100869.00;;;12.70;77.50
3122;BME280;1571;52.524;14.104;2024-03-22T10:22:55;100871.03;;;12.93;77.71
3122;BME280;1571;52.524;14.104;2024-03-22T10:25:24;100866.28;;;12.45;77.60
3122;BME280;1571;52.524;14.104;2024-03-22T10:27:51;100865.34;;;12.71;78.04
3122;BME280;1571;52.524;14.104;2024-03-22T10:30:17;100874.16;;;12.34;78.00
3122;BME280;1571;52.524;14.104;2024-03-22T10:32:46;100855.44;;;12.74;78.24
3122;BME280;1571;52.524;14.104;2024-03-22T10:35:14;100858.22;;;12.98;77.80
3122;BME280;1571;52.524;14.104;2024-03-22T10:37:41;100860.66;;;12.62;77.95
3122;BME280;1571;52.524;14.104;2024-03-22T10:40:08;100860.31;;;12.28;78.32
3122;BME280;1571;52.524;14.104;2024-03-22T10:42:39;100856.06;;;12.90;77.43
3122;BME280;1571;52.524;14.104;2024-03-22T10:45:07;100855.63;;;13.09;77.43
3122;BME280;1571;52.524;14.104;2024-03-22T10:47:36;100828.00;;;13.60;75.92
3122;BME280;1571;52.524;14.104;2024-03-22T10:50:05;100828.69;;;13.50;75.40
3122;BME280;1571;52.524;14.104;2024-03-22T10:52:35;100816.34;;;13.24;75.55
3122;BME280;1571;52.524;14.104;2024-03-22T10:55:08;100808.66;;;13.45;75.56
3122;BME280;1571;52.524;14.104;2024-03-22T10:57:38;100798.06;;;13.91;75.16
3122;BME280;1571;52.524;14.104;2024-03-22T11:00:09;100794.66;;;14.36;74.22
3122;BME280;1571;52.524;14.104;2024-03-22T11:02:36;100791.63;;;13.83;73.37
3122;BME280;1571;52.524;14.104;2024-03-22T11:05:03;100791.88;;;14.26;72.94
3122;BME280;1571;52.524;14.104;2024-03-22T11:07:30;100784.66;;;14.73;72.35
3122;BME280;1571;52.524;14.104;2024-03-22T11:09:58;100791.84;;;14.15;72.60
3122;BME280;1571;52.524;14.104;2024-03-22T11:12:25;100797.16;;;14.04;72.19
3122;BME280;1571;52.524;14.104;2024-03-22T11:14:55;100785.50;;;14.16;71.51
3122;BME280;1571;52.524;14.104;2024-03-22T11:17:21;100779.44;;;14.61;71.78
3122;BME280;1571;52.524;14.104;2024-03-22T11:19:50;100781.50;;;14.57;71.42
3122;BME280;1571;52.524;14.104;2024-03-22T11:22:18;100781.94;;;14.51;71.37
3122;BME280;1571;52.524;14.104;2024-03-22T11:24:45;100772.19;;;14.38;71.04
3122;BME280;1571;52.524;14.104;2024-03-22T11:27:12;100773.84;;;14.06;71.57
3122;BME280;1571;52.524;14.104;2024-03-22T11:29:40;100762.03;;;14.44;70.78
3122;BME280;1571;52.524;14.104;2024-03-22T11:32:09;100765.69;;;13.61;71.53
3122;BME280;1571;52.524;14.104;2024-03-22T11:34:36;100759.50;;;13.95;71.92
3122;BME280;1571;52.524;14.104;2024-03-22T11:37:04;100753.03;;;13.87;71.90
3122;BME280;1571;52.524;14.104;2024-03-22T11:39:31;100753.34;;;13.71;72.23
3122;BME280;1571;52.524;14.104;2024-03-22T11:41:57;100754.94;;;13.25;72.72
3122;BME280;1571;52.524;14.104;2024-03-22T11:44:25;100761.50;;;13.45;72.85
3122;BME280;1571;52.524;14.104;2024-03-22T11:46:52;100748.75;;;13.73;72.30
3122;BME280;1571;52.524;14.104;2024-03-22T11:49:22;100743.03;;;13.66;72.03
3122;BME280;1571;52.524;14.104;2024-03-22T11:51:48;100744.56;;;13.58;72.64
3122;BME280;1571;52.524;14.104;2024-03-22T11:54:15;100744.84;;;13.66;71.95
3122;BME280;1571;52.524;14.104;2024-03-22T11:56:42;100741.44;;;13.64;71.75
3122;BME280;1571;52.524;14.104;2024-03-22T11:59:09;100739.25;;;13.33;72.09
3122;BME280;1571;52.524;14.104;2024-03-22T12:01:35;100732.47;;;13.17;72.50
3122;BME280;1571;52.524;14.104;2024-03-22T12:04:03;100740.94;;;13.10;73.35
3122;BME280;1571;52.524;14.104;2024-03-22T12:06:31;100752.97;;;12.66;73.82
3122;BME280;1571;52.524;14.104;2024-03-22T12:09:00;100749.97;;;12.58;74.19
3122;BME280;1571;52.524;14.104;2024-03-22T12:11:26;100752.13;;;12.66;74.54
3122;BME280;1571;52.524;14.104;2024-03-22T12:13:53;100759.78;;;12.70;74.77
3122;BME280;1571;52.524;14.104;2024-03-22T12:16:20;100762.97;;;12.76;74.70
3122;BME280;1571;52.524;14.104;2024-03-22T12:18:47;100760.78;;;13.06;75.68
3122;BME280;1571;52.524;14.104;2024-03-22T12:21:13;100759.22;;;12.91;77.13
3122;BME280;1571;52.524;14.104;2024-03-22T12:23:42;100758.97;;;12.32;77.65
3122;BME280;1571;52.524;14.104;2024-03-22T12:26:08;100756.09;;;12.35;78.60
3122;BME280;1571;52.524;14.104;2024-03-22T12:28:35;100764.22;;;11.93;80.55
3122;BME280;1571;52.524;14.104;2024-03-22T12:31:03;100764.38;;;11.77;83.12
3122;BME280;1571;52.524;14.104;2024-03-22T12:33:31;100745.91;;;11.88;84.88
3122;BME280;1571;52.524;14.104;2024-03-22T12:35:57;100736.59;;;11.56;85.33
3122;BME280;1571;52.524;14.104;2024-03-22T12:38:24;100732.47;;;11.64;86.54
3122;BME280;1571;52.524;14.104;2024-03-22T12:40:52;100728.03;;;11.38;87.00
3122;BME280;1571;52.524;14.104;2024-03-22T12:43:19;100734.16;;;11.65;88.36
3122;BME280;1571;52.524;14.104;2024-03-22T12:45:46;100725.38;;;11.38;88.79
3122;BME280;1571;52.524;14.104;2024-03-22T12:48:12;100735.75;;;11.28;89.83
3122;BME280;1571;52.524;14.104;2024-03-22T12:50:40;100727.81;;;11.14;91.81
3122;BME280;1571;52.524;14.104;2024-03-22T12:53:06;100724.41;;;11.12;93.04
3122;BME280;1571;52.524;14.104;2024-03-22T12:55:33;100722.72;;;11.38;93.99
3122;BME280;1571;52.524;14.104;2024-03-22T12:58:01;100716.84;;;11.06;95.46
3122;BME280;1571;52.524;14.104;2024-03-22T13:00:29;100719.09;;;11.12;96.69
3122;BME280;1571;52.524;14.104;2024-03-22T13:02:55;100718.97;;;10.86;97.16